sensor_id;sensor_type;location;lat;lon;timestamp;P1;durP1;ratioP1;P2;durP2;ratioP2
51489;SDS011;57752;53.574;9.736;2023-03-31T00:03:10;31.05;;;8.15;;
51489;SDS011;57752;53.574;9.736;2023-03-31T00:08:20;30.27;;;7.90;;
51489;SDS011;57752;53.574;9.736;2023-03-31T00:13:21;29.95;;;7.53;;
51489;SDS011;57752;53.574;9.736;2023-03-31T00:18:21;29.45;;;7.03;;
51489;SDS011;57752;53.574;9.736;2023-03-31T00:23:21;28.35;;;7.38;;
51489;SDS011;57752;53.574;9.736;2023-03-31T00:28:26;25.00;;;7.20;;
51489;SDS011;57752;53.574;9.736;2023-03-31T00:33:26;23.35;;;6.43;;
51489;SDS011;57752;53.574;9.736;2023-03-31T00:38:27;25.17;;;6.47;;
51489;SDS011;57752;53.574;9.736;2023-03-31T00:48:29;31.08;;;7.30;;
51489;SDS011;57752;53.574;9.736;2023-03-31T00:53:30;32.00;;;6.47;;
51489;SDS011;57752;53.574;9.736;2023-03-31T00:58:31;23.10;;;5.47;;
51489;SDS011;57752;53.574;9.736;2023-03-31T01:03:32;30.80;;;5.53;;
51489;SDS011;57752;53.574;9.736;2023-03-31T01:08:33;32.38;;;5.53;;
51489;SDS011;57752;53.574;9.736;2023-03-31T01:13:36;29.60;;;6.10;;
51489;SDS011;57752;53.574;9.736;2023-03-31T01:18:37;28.17;;;6.18;;
51489;SDS011;57752;53.574;9.736;2023-03-31T01:28:41;27.70;;;5.68;;
51489;SDS011;57752;53.574;9.736;2023-03-31T01:39:09;27.80;;;5.45;;
51489;SDS011;57752;53.574;9.736;2023-03-31T01:44:21;18.85;;;5.72;;
51489;SDS011;57752;53.574;9.736;2023-03-31T01:49:24;26.35;;;6.10;;
51489;SDS011;57752;53.574;9.736;2023-03-31T01:54:41;24.55;;;5.65;;
51489;SDS011;57752;53.574;9.736;2023-03-31T02:04:51;34.22;;;7.07;;
51489;SDS011;57752;53.574;9.736;2023-03-31T02:09:54;24.90;;;5.75;;
51489;SDS011;57752;53.574;9.736;2023-03-31T02:14:55;26.17;;;6.18;;
51489;SDS011;57752;53.574;9.736;2023-03-31T02:19:58;24.80;;;6.45;;
51489;SDS011;57752;53.574;9.736;2023-03-31T02:25:00;23.65;;;6.25;;
51489;SDS011;57752;53.574;9.736;2023-03-31T02:30:01;25.83;;;7.10;;
51489;SDS011;57752;53.574;9.736;2023-03-31T02:35:03;26.35;;;7.95;;
51489;SDS011;57752;53.574;9.736;2023-03-31T02:40:07;23.92;;;6.95;;
51489;SDS011;57752;53.574;9.736;2023-03-31T02:50:29;29.65;;;6.90;;
51489;SDS011;57752;53.574;9.736;2023-03-31T02:55:38;22.25;;;6.50;;
51489;SDS011;57752;53.574;9.736;2023-03-31T03:05:45;24.73;;;7.70;;
51489;SDS011;57752;53.574;9.736;2023-03-31T03:10:56;21.77;;;6.47;;
51489;SDS011;57752;53.574;9.736;2023-03-31T03:16:32;28.10;;;7.22;;
51489;SDS011;57752;53.574;9.736;2023-03-31T03:21:26;24.00;;;6.95;;
51489;SDS011;57752;53.574;9.736;2023-03-31T03:26:27;19.92;;;6.07;;
51489;SDS011;57752;53.574;9.736;2023-03-31T03:31:27;19.00;;;6.30;;
51489;SDS011;57752;53.574;9.736;2023-03-31T03:36:27;29.63;;;7.10;;
51489;SDS011;57752;53.574;9.736;2023-03-31T03:41:27;20.38;;;7.25;;
51489;SDS011;57752;53.574;9.736;2023-03-31T03:46:27;27.98;;;7.35;;
51489;SDS011;57752;53.574;9.736;2023-03-31T03:51:27;22.45;;;6.75;;
51489;SDS011;57752;53.574;9.736;2023-03-31T03:56:28;22.73;;;6.90;;
51489;SDS011;57752;53.574;9.736;2023-03-31T04:01:28;20.88;;;6.25;;
51489;SDS011;57752;53.574;9.736;2023-03-31T04:06:28;23.92;;;7.65;;
51489;SDS011;57752;53.574;9.736;2023-03-31T04:11:29;24.27;;;7.50;;
51489;SDS011;57752;53.574;9.736;2023-03-31T04:16:29;20.40;;;7.43;;
51489;SDS011;57752;53.574;9.736;2023-03-31T04:21:29;25.08;;;6.95;;
51489;SDS011;57752;53.574;9.736;2023-03-31T04:26:34;24.50;;;7.82;;
51489;SDS011;57752;53.574;9.736;2023-03-31T04:31:43;23.25;;;7.30;;
51489;SDS011;57752;53.574;9.736;2023-03-31T04:36:44;23.38;;;6.88;;
51489;SDS011;57752;53.574;9.736;2023-03-31T04:41:47;22.25;;;7.95;;
51489;SDS011;57752;53.574;9.736;2023-03-31T04:46:47;22.67;;;7.50;;
51489;SDS011;57752;53.574;9.736;2023-03-31T04:51:47;25.05;;;7.75;;
51489;SDS011;57752;53.574;9.736;2023-03-31T04:56:47;20.48;;;7.70;;
51489;SDS011;57752;53.574;9.736;2023-03-31T05:01:48;20.30;;;7.90;;
51489;SDS011;57752;53.574;9.736;2023-03-31T05:06:48;25.38;;;8.40;;
51489;SDS011;57752;53.574;9.736;2023-03-31T05:11:48;23.90;;;7.97;;
51489;SDS011;57752;53.574;9.736;2023-03-31T05:16:48;25.17;;;9.43;;
51489;SDS011;57752;53.574;9.736;2023-03-31T05:21:48;25.90;;;9.43;;
51489;SDS011;57752;53.574;9.736;2023-03-31T05:26:48;31.98;;;10.65;;
51489;SDS011;57752;53.574;9.736;2023-03-31T05:31:51;26.67;;;10.88;;
51489;SDS011;57752;53.574;9.736;2023-03-31T05:36:55;28.60;;;10.38;;
51489;SDS011;57752;53.574;9.736;2023-03-31T05:41:55;31.23;;;12.18;;
51489;SDS011;57752;53.574;9.736;2023-03-31T05:46:55;27.42;;;10.85;;
51489;SDS011;57752;53.574;9.736;2023-03-31T05:51:55;28.70;;;11.32;;
51489;SDS011;57752;53.574;9.736;2023-03-31T05:56:55;31.63;;;11.80;;
51489;SDS011;57752;53.574;9.736;2023-03-31T06:01:55;28.00;;;9.73;;
51489;SDS011;57752;53.574;9.736;2023-03-31T06:06:56;28.73;;;10.60;;
51489;SDS011;57752;53.574;9.736;2023-03-31T06:11:57;27.65;;;9.35;;
51489;SDS011;57752;53.574;9.736;2023-03-31T06:16:57;26.40;;;9.35;;
51489;SDS011;57752;53.574;9.736;2023-03-31T06:21:57;24.10;;;9.55;;
51489;SDS011;57752;53.574;9.736;2023-03-31T06:26:57;28.27;;;9.70;;
51489;SDS011;57752;53.574;9.736;2023-03-31T06:31:59;23.77;;;7.95;;
51489;SDS011;57752;53.574;9.736;2023-03-31T06:37:00;23.67;;;9.48;;
51489;SDS011;57752;53.574;9.736;2023-03-31T06:42:00;23.67;;;9.77;;
51489;SDS011;57752;53.574;9.736;2023-03-31T06:47:00;25.30;;;9.15;;
51489;SDS011;57752;53.574;9.736;2023-03-31T06:52:00;27.95;;;8.55;;
51489;SDS011;57752;53.574;9.736;2023-03-31T06:57:00;22.55;;;8.20;;
51489;SDS011;57752;53.574;9.736;2023-03-31T07:02:00;23.42;;;8.18;;
51489;SDS011;57752;53.574;9.736;2023-03-31T07:07:01;20.10;;;8.70;;
51489;SDS011;57752;53.574;9.736;2023-03-31T07:12:01;19.25;;;7.78;;
51489;SDS011;57752;53.574;9.736;2023-03-31T07:17:04;23.00;;;9.05;;
51489;SDS011;57752;53.574;9.736;2023-03-31T07:22:04;26.43;;;8.63;;
51489;SDS011;57752;53.574;9.736;2023-03-31T07:27:05;23.67;;;8.00;;
51489;SDS011;57752;53.574;9.736;2023-03-31T07:32:05;22.20;;;7.88;;
51489;SDS011;57752;53.574;9.736;2023-03-31T07:37:05;19.55;;;8.93;;
51489;SDS011;57752;53.574;9.736;2023-03-31T07:42:06;25.77;;;8.95;;
51489;SDS011;57752;53.574;9.736;2023-03-31T07:47:06;19.08;;;7.90;;
51489;SDS011;57752;53.574;9.736;2023-03-31T07:52:06;20.23;;;8.43;;
51489;SDS011;57752;53.574;9.736;2023-03-31T07:57:06;20.17;;;7.78;;
51489;SDS011;57752;53.574;9.736;2023-03-31T08:02:09;22.67;;;8.10;;
51489;SDS011;57752;53.574;9.736;2023-03-31T08:07:11;21.80;;;8.35;;
51489;SDS011;57752;53.574;9.736;2023-03-31T08:12:12;19.80;;;7.75;;
51489;SDS011;57752;53.574;9.736;2023-03-31T08:17:13;23.38;;;7.93;;
51489;SDS011;57752;53.574;9.736;2023-03-31T08:22:13;20.35;;;8.00;;
51489;SDS011;57752;53.574;9.736;2023-03-31T08:27:13;22.48;;;8.07;;
51489;SDS011;57752;53.574;9.736;2023-03-31T08:32:13;20.75;;;7.55;;
51489;SDS011;57752;53.574;9.736;2023-03-31T08:37:13;18.63;;;6.95;;
51489;SDS011;57752;53.574;9.736;2023-03-31T08:47:25;18.35;;;7.05;;
51489;SDS011;57752;53.574;9.736;2023-03-31T08:52:30;16.43;;;6.17;;
51489;SDS011;57752;53.574;9.736;2023-03-31T08:57:35;15.63;;;6.75;;
51489;SDS011;57752;53.574;9.736;2023-03-31T09:02:50;17.23;;;6.70;;
51489;SDS011;57752;53.574;9.736;2023-03-31T09:07:56;16.38;;;5.93;;
51489;SDS011;57752;53.574;9.736;2023-03-31T09:13:07;17.65;;;5.82;;
51489;SDS011;57752;53.574;9.736;2023-03-31T09:18:16;15.00;;;5.32;;
51489;SDS011;57752;53.574;9.736;2023-03-31T09:28:29;15.77;;;5.07;;
51489;SDS011;57752;53.574;9.736;2023-03-31T09:33:30;13.43;;;4.82;;
51489;SDS011;57752;53.574;9.736;2023-03-31T09:38:33;12.90;;;5.10;;
51489;SDS011;57752;53.574;9.736;2023-03-31T09:43:34;14.65;;;4.80;;
51489;SDS011;57752;53.574;9.736;2023-03-31T09:48:34;11.82;;;4.50;;
51489;SDS011;57752;53.574;9.736;2023-03-31T09:54:09;15.95;;;6.28;;
51489;SDS011;57752;53.574;9.736;2023-03-31T09:59:02;12.85;;;4.95;;
51489;SDS011;57752;53.574;9.736;2023-03-31T10:04:02;15.70;;;5.03;;
51489;SDS011;57752;53.574;9.736;2023-03-31T10:09:08;14.07;;;5.78;;
51489;SDS011;57752;53.574;9.736;2023-03-31T10:14:12;13.90;;;5.57;;
51489;SDS011;57752;53.574;9.736;2023-03-31T10:19:26;16.85;;;5.43;;
51489;SDS011;57752;53.574;9.736;2023-03-31T10:24:35;15.80;;;5.95;;
51489;SDS011;57752;53.574;9.736;2023-03-31T10:29:36;12.20;;;4.93;;
51489;SDS011;57752;53.574;9.736;2023-03-31T10:34:38;12.82;;;4.63;;
51489;SDS011;57752;53.574;9.736;2023-03-31T10:39:40;11.38;;;4.40;;
51489;SDS011;57752;53.574;9.736;2023-03-31T10:44:42;13.13;;;4.27;;
51489;SDS011;57752;53.574;9.736;2023-03-31T10:49:42;12.68;;;5.00;;
51489;SDS011;57752;53.574;9.736;2023-03-31T10:54:45;13.05;;;4.82;;
51489;SDS011;57752;53.574;9.736;2023-03-31T11:04:47;11.38;;;3.80;;
51489;SDS011;57752;53.574;9.736;2023-03-31T11:09:54;12.23;;;4.70;;
51489;SDS011;57752;53.574;9.736;2023-03-31T11:20:11;11.88;;;3.67;;
51489;SDS011;57752;53.574;9.736;2023-03-31T11:25:18;10.50;;;3.70;;
51489;SDS011;57752;53.574;9.736;2023-03-31T11:35:53;14.15;;;3.80;;
51489;SDS011;57752;53.574;9.736;2023-03-31T11:40:59;10.93;;;3.50;;
51489;SDS011;57752;53.574;9.736;2023-03-31T11:51:02;10.93;;;3.60;;
51489;SDS011;57752;53.574;9.736;2023-03-31T11:56:03;14.25;;;3.85;;
51489;SDS011;57752;53.574;9.736;2023-03-31T12:01:08;10.75;;;4.00;;
51489;SDS011;57752;53.574;9.736;2023-03-31T12:06:17;13.30;;;3.92;;
51489;SDS011;57752;53.574;9.736;2023-03-31T12:11:37;12.63;;;3.85;;
51489;SDS011;57752;53.574;9.736;2023-03-31T12:16:46;14.73;;;4.32;;
51489;SDS011;57752;53.574;9.736;2023-03-31T12:21:49;12.38;;;3.70;;
51489;SDS011;57752;53.574;9.736;2023-03-31T12:26:56;14.05;;;3.92;;
51489;SDS011;57752;53.574;9.736;2023-03-31T12:32:01;11.57;;;4.10;;
51489;SDS011;57752;53.574;9.736;2023-03-31T12:57:31;13.75;;;5.13;;
51489;SDS011;57752;53.574;9.736;2023-03-31T13:02:32;13.10;;;4.80;;
51489;SDS011;57752;53.574;9.736;2023-03-31T13:07:33;15.02;;;5.07;;
51489;SDS011;57752;53.574;9.736;2023-03-31T13:12:34;12.35;;;4.45;;
51489;SDS011;57752;53.574;9.736;2023-03-31T13:17:35;13.00;;;5.10;;
51489;SDS011;57752;53.574;9.736;2023-03-31T13:22:36;12.07;;;4.55;;
51489;SDS011;57752;53.574;9.736;2023-03-31T13:27:36;13.73;;;4.60;;
51489;SDS011;57752;53.574;9.736;2023-03-31T13:33:00;14.05;;;4.85;;
51489;SDS011;57752;53.574;9.736;2023-03-31T13:38:25;12.70;;;4.70;;
51489;SDS011;57752;53.574;9.736;2023-03-31T13:43:32;12.18;;;4.40;;
51489;SDS011;57752;53.574;9.736;2023-03-31T13:48:39;11.52;;;4.40;;
51489;SDS011;57752;53.574;9.736;2023-03-31T13:58:52;11.05;;;4.00;;
51489;SDS011;57752;53.574;9.736;2023-03-31T14:09:11;8.88;;;3.65;;
51489;SDS011;57752;53.574;9.736;2023-03-31T14:14:13;9.90;;;3.83;;
51489;SDS011;57752;53.574;9.736;2023-03-31T14:19:30;10.75;;;4.05;;
51489;SDS011;57752;53.574;9.736;2023-03-31T14:24:36;10.15;;;4.00;;
51489;SDS011;57752;53.574;9.736;2023-03-31T14:40:17;9.13;;;3.13;;
51489;SDS011;57752;53.574;9.736;2023-03-31T14:45:21;9.57;;;3.08;;
51489;SDS011;57752;53.574;9.736;2023-03-31T14:50:28;9.85;;;3.47;;
51489;SDS011;57752;53.574;9.736;2023-03-31T14:55:28;9.52;;;3.10;;
51489;SDS011;57752;53.574;9.736;2023-03-31T15:00:30;10.95;;;3.33;;
51489;SDS011;57752;53.574;9.736;2023-03-31T15:05:32;10.07;;;3.20;;
51489;SDS011;57752;53.574;9.736;2023-03-31T15:10:36;9.30;;;2.88;;
51489;SDS011;57752;53.574;9.736;2023-03-31T15:15:37;11.50;;;3.40;;
51489;SDS011;57752;53.574;9.736;2023-03-31T15:20:39;9.93;;;3.10;;
51489;SDS011;57752;53.574;9.736;2023-03-31T15:25:40;10.33;;;3.37;;
51489;SDS011;57752;53.574;9.736;2023-03-31T15:30:41;9.40;;;3.28;;
51489;SDS011;57752;53.574;9.736;2023-03-31T15:35:41;11.93;;;3.70;;
51489;SDS011;57752;53.574;9.736;2023-03-31T15:40:42;9.98;;;3.70;;
51489;SDS011;57752;53.574;9.736;2023-03-31T15:45:49;9.48;;;4.00;;
51489;SDS011;57752;53.574;9.736;2023-03-31T15:50:50;12.18;;;4.05;;
51489;SDS011;57752;53.574;9.736;2023-03-31T15:55:52;10.88;;;4.60;;
51489;SDS011;57752;53.574;9.736;2023-03-31T16:00:54;11.52;;;4.13;;
51489;SDS011;57752;53.574;9.736;2023-03-31T16:06:02;11.73;;;4.53;;
51489;SDS011;57752;53.574;9.736;2023-03-31T16:11:08;11.70;;;4.35;;
51489;SDS011;57752;53.574;9.736;2023-03-31T16:16:12;9.77;;;4.00;;
51489;SDS011;57752;53.574;9.736;2023-03-31T16:21:13;11.10;;;4.37;;
51489;SDS011;57752;53.574;9.736;2023-03-31T16:26:20;11.45;;;3.60;;
51489;SDS011;57752;53.574;9.736;2023-03-31T16:31:27;12.13;;;4.20;;
51489;SDS011;57752;53.574;9.736;2023-03-31T16:36:28;10.25;;;4.18;;
51489;SDS011;57752;53.574;9.736;2023-03-31T16:41:29;10.07;;;3.83;;
51489;SDS011;57752;53.574;9.736;2023-03-31T16:46:29;10.20;;;3.75;;
51489;SDS011;57752;53.574;9.736;2023-03-31T16:51:29;10.18;;;3.33;;
51489;SDS011;57752;53.574;9.736;2023-03-31T16:56:29;13.27;;;4.63;;
51489;SDS011;57752;53.574;9.736;2023-03-31T17:01:29;10.02;;;3.90;;
51489;SDS011;57752;53.574;9.736;2023-03-31T17:06:30;10.57;;;3.70;;
51489;SDS011;57752;53.574;9.736;2023-03-31T17:11:30;9.43;;;3.75;;
51489;SDS011;57752;53.574;9.736;2023-03-31T17:16:30;13.63;;;5.15;;
51489;SDS011;57752;53.574;9.736;2023-03-31T17:21:31;13.90;;;4.43;;
51489;SDS011;57752;53.574;9.736;2023-03-31T17:26:31;11.98;;;4.75;;
51489;SDS011;57752;53.574;9.736;2023-03-31T17:31:32;12.88;;;4.93;;
51489;SDS011;57752;53.574;9.736;2023-03-31T17:36:32;10.18;;;4.50;;
51489;SDS011;57752;53.574;9.736;2023-03-31T17:41:32;13.52;;;4.15;;
51489;SDS011;57752;53.574;9.736;2023-03-31T17:46:32;12.65;;;4.60;;
51489;SDS011;57752;53.574;9.736;2023-03-31T17:51:33;16.27;;;4.40;;
51489;SDS011;57752;53.574;9.736;2023-03-31T17:56:34;11.55;;;4.13;;
51489;SDS011;57752;53.574;9.736;2023-03-31T18:01:34;10.57;;;4.25;;
51489;SDS011;57752;53.574;9.736;2023-03-31T18:06:34;17.38;;;5.20;;
51489;SDS011;57752;53.574;9.736;2023-03-31T18:11:34;13.63;;;4.47;;
51489;SDS011;57752;53.574;9.736;2023-03-31T18:16:34;11.48;;;4.50;;
51489;SDS011;57752;53.574;9.736;2023-03-31T18:21:35;11.02;;;4.50;;
51489;SDS011;57752;53.574;9.736;2023-03-31T18:26:35;19.08;;;6.88;;
51489;SDS011;57752;53.574;9.736;2023-03-31T18:31:36;16.45;;;7.30;;
51489;SDS011;57752;53.574;9.736;2023-03-31T18:36:36;14.13;;;6.85;;
51489;SDS011;57752;53.574;9.736;2023-03-31T18:41:43;13.55;;;5.13;;
51489;SDS011;57752;53.574;9.736;2023-03-31T18:46:44;15.00;;;5.82;;
51489;SDS011;57752;53.574;9.736;2023-03-31T18:51:44;19.75;;;8.30;;
51489;SDS011;57752;53.574;9.736;2023-03-31T18:56:45;15.50;;;7.10;;
51489;SDS011;57752;53.574;9.736;2023-03-31T19:01:45;14.27;;;6.90;;
51489;SDS011;57752;53.574;9.736;2023-03-31T19:06:45;19.50;;;7.57;;
51489;SDS011;57752;53.574;9.736;2023-03-31T19:11:45;16.98;;;5.60;;
51489;SDS011;57752;53.574;9.736;2023-03-31T19:16:46;14.60;;;5.10;;
51489;SDS011;57752;53.574;9.736;2023-03-31T19:21:46;12.25;;;4.78;;
51489;SDS011;57752;53.574;9.736;2023-03-31T19:26:47;14.02;;;5.25;;
51489;SDS011;57752;53.574;9.736;2023-03-31T19:31:48;12.95;;;5.45;;
51489;SDS011;57752;53.574;9.736;2023-03-31T19:36:48;13.30;;;5.35;;
51489;SDS011;57752;53.574;9.736;2023-03-31T19:41:48;14.02;;;5.10;;
51489;SDS011;57752;53.574;9.736;2023-03-31T19:46:48;15.75;;;5.30;;
51489;SDS011;57752;53.574;9.736;2023-03-31T19:51:48;13.07;;;5.20;;
51489;SDS011;57752;53.574;9.736;2023-03-31T19:56:48;11.98;;;4.20;;
51489;SDS011;57752;53.574;9.736;2023-03-31T20:01:49;15.87;;;4.80;;
51489;SDS011;57752;53.574;9.736;2023-03-31T20:06:49;12.10;;;4.63;;
51489;SDS011;57752;53.574;9.736;2023-03-31T20:11:49;14.18;;;5.10;;
51489;SDS011;57752;53.574;9.736;2023-03-31T20:16:50;13.35;;;4.88;;
51489;SDS011;57752;53.574;9.736;2023-03-31T20:21:51;13.32;;;4.60;;
51489;SDS011;57752;53.574;9.736;2023-03-31T20:26:53;13.95;;;4.95;;
51489;SDS011;57752;53.574;9.736;2023-03-31T20:31:53;14.70;;;5.25;;
51489;SDS011;57752;53.574;9.736;2023-03-31T20:36:53;14.40;;;5.93;;
51489;SDS011;57752;53.574;9.736;2023-03-31T20:41:53;15.13;;;5.78;;
51489;SDS011;57752;53.574;9.736;2023-03-31T20:46:54;13.38;;;5.53;;
51489;SDS011;57752;53.574;9.736;2023-03-31T20:51:57;14.20;;;5.40;;
51489;SDS011;57752;53.574;9.736;2023-03-31T20:56:58;16.27;;;5.68;;
51489;SDS011;57752;53.574;9.736;2023-03-31T21:02:00;11.68;;;5.10;;
51489;SDS011;57752;53.574;9.736;2023-03-31T21:07:01;14.30;;;4.65;;
51489;SDS011;57752;53.574;9.736;2023-03-31T21:12:01;12.45;;;4.90;;
51489;SDS011;57752;53.574;9.736;2023-03-31T21:17:02;13.27;;;4.80;;
51489;SDS011;57752;53.574;9.736;2023-03-31T21:22:02;14.38;;;5.65;;
51489;SDS011;57752;53.574;9.736;2023-03-31T21:27:03;15.02;;;5.03;;
51489;SDS011;57752;53.574;9.736;2023-03-31T21:32:03;15.60;;;6.18;;
51489;SDS011;57752;53.574;9.736;2023-03-31T21:37:05;15.10;;;5.60;;
51489;SDS011;57752;53.574;9.736;2023-03-31T21:42:07;19.67;;;7.03;;
51489;SDS011;57752;53.574;9.736;2023-03-31T21:47:07;13.77;;;5.97;;
51489;SDS011;57752;53.574;9.736;2023-03-31T21:52:07;16.15;;;6.85;;
51489;SDS011;57752;53.574;9.736;2023-03-31T21:57:08;17.63;;;6.88;;
51489;SDS011;57752;53.574;9.736;2023-03-31T22:02:08;18.05;;;6.75;;
51489;SDS011;57752;53.574;9.736;2023-03-31T22:07:09;18.10;;;6.68;;
51489;SDS011;57752;53.574;9.736;2023-03-31T22:12:09;18.40;;;6.55;;
51489;SDS011;57752;53.574;9.736;2023-03-31T22:17:09;18.05;;;6.90;;
51489;SDS011;57752;53.574;9.736;2023-03-31T22:22:10;13.80;;;5.90;;
51489;SDS011;57752;53.574;9.736;2023-03-31T22:27:10;20.63;;;7.57;;
51489;SDS011;57752;53.574;9.736;2023-03-31T22:32:11;20.55;;;7.53;;
51489;SDS011;57752;53.574;9.736;2023-03-31T22:37:12;24.52;;;7.47;;
51489;SDS011;57752;53.574;9.736;2023-03-31T22:42:12;22.70;;;8.38;;
51489;SDS011;57752;53.574;9.736;2023-03-31T22:47:12;18.92;;;7.38;;
51489;SDS011;57752;53.574;9.736;2023-03-31T22:52:12;20.02;;;8.25;;
51489;SDS011;57752;53.574;9.736;2023-03-31T22:57:12;18.27;;;7.90;;
51489;SDS011;57752;53.574;9.736;2023-03-31T23:02:12;19.70;;;7.70;;
51489;SDS011;57752;53.574;9.736;2023-03-31T23:07:13;19.17;;;6.82;;
51489;SDS011;57752;53.574;9.736;2023-03-31T23:12:14;20.75;;;7.78;;
51489;SDS011;57752;53.574;9.736;2023-03-31T23:17:15;18.58;;;7.70;;
51489;SDS011;57752;53.574;9.736;2023-03-31T23:22:15;19.15;;;7.45;;
51489;SDS011;57752;53.574;9.736;2023-03-31T23:27:15;24.48;;;8.15;;
51489;SDS011;57752;53.574;9.736;2023-03-31T23:32:15;22.90;;;7.60;;
51489;SDS011;57752;53.574;9.736;2023-03-31T23:37:15;21.80;;;9.10;;
51489;SDS011;57752;53.574;9.736;2023-03-31T23:42:16;20.67;;;8.83;;
51489;SDS011;57752;53.574;9.736;2023-03-31T23:47:19;17.80;;;7.78;;
51489;SDS011;57752;53.574;9.736;2023-03-31T23:52:19;18.33;;;7.93;;
51489;SDS011;57752;53.574;9.736;2023-03-31T23:57:20;23.42;;;9.63;;
